Time;durP1;ratioP1;P1;durP2;ratioP2;P2;SDS_P1;SDS_P2;PMS_P1;PMS_P2;Temp;Humidity;BMP_temperature;BMP_pressure;BME280_temperature;BME280_humidity;BME280_pressure;Samples;Min_cycle;Max_cycle;Signal;HPM_P1;HPM_P2
2021/09/01 00:01:30;;;;;;;10.23;3.90;;;19.10;76.20;;;;;;5101329;27;20067;-69
2021/09/01 00:03:56;;;;;;;9.35;3.50;;;19.10;78.40;;;;;;5104807;27;22199;-69
2021/09/01 00:06:21;;;;;;;14.40;3.95;;;19.20;80.10;;;;;;5116734;27;20031;-70
2021/09/01 00:08:51;;;;;;;8.60;3.55;;;19.30;79.50;;;;;;5103813;27;20122;-70
2021/09/01 00:11:21;;;;;;;11.75;4.10;;;19.30;79.30;;;;;;5087132;27;20043;-70
2021/09/01 00:13:47;;;;;;;10.57;4.28;;;19.40;79.20;;;;;;5099625;27;20055;-70
2021/09/01 00:16:26;;;;;;;8.85;3.28;;;19.50;80.00;;;;;;5117558;27;20043;-70
2021/09/01 00:18:57;;;;;;;8.20;3.65;;;19.60;80.50;;;;;;5105122;27;20158;-70
2021/09/01 00:21:23;;;;;;;8.05;3.53;;;19.70;80.50;;;;;;5101065;27;20043;-70
2021/09/01 00:23:50;;;;;;;10.48;3.40;;;19.90;80.20;;;;;;5099925;27;20046;-70
2021/09/01 00:26:16;;;;;;;8.27;3.53;;;20.00;79.80;;;;;;5103703;27;20035;-71
2021/09/01 00:28:42;;;;;;;9.38;3.65;;;20.10;79.40;;;;;;5100943;27;20126;-70
2021/09/01 00:31:08;;;;;;;13.05;3.67;;;20.10;79.00;;;;;;5100277;27;20031;-70
2021/09/01 00:33:33;;;;;;;9.50;3.85;;;20.20;77.20;;;;;;5099168;27;20075;-70
2021/09/01 00:35:59;;;;;;;8.50;3.15;;;20.20;77.40;;;;;;5069581;27;20919;-70
2021/09/01 00:38:24;;;;;;;5.85;2.55;;;20.30;78.00;;;;;;5085634;27;20096;-69
2021/09/01 00:40:55;;;;;;;9.35;3.88;;;20.30;78.00;;;;;;5102130;27;20039;-70
2021/09/01 00:43:22;;;;;;;8.70;3.72;;;20.40;77.90;;;;;;5079083;28;20140;-67
2021/09/01 00:45:48;;;;;;;10.00;3.70;;;20.40;77.60;;;;;;5099884;28;20047;-67
2021/09/01 00:48:19;;;;;;;8.20;3.17;;;20.40;77.50;;;;;;5095703;28;20023;-67
2021/09/01 00:50:56;;;;;;;7.82;3.58;;;20.50;77.50;;;;;;5085049;28;20161;-67
2021/09/01 00:53:28;;;;;;;8.85;3.08;;;20.50;77.40;;;;;;5099588;28;20077;-66
2021/09/01 00:55:58;;;;;;;9.00;3.28;;;20.50;77.30;;;;;;5097637;28;20028;-66
2021/09/01 00:58:24;;;;;;;9.05;3.38;;;20.50;77.10;;;;;;5099355;28;20035;-66
2021/09/01 01:03:16;;;;;;;6.80;3.35;;;20.50;77.20;;;;;;5097251;28;20051;-65
2021/09/01 01:05:43;;;;;;;7.53;3.20;;;20.50;77.30;;;;;;5099098;28;20578;-65
2021/09/01 01:08:09;;;;;;;9.50;3.50;;;20.50;77.30;;;;;;5096223;28;20054;-65
2021/09/01 01:10:35;;;;;;;10.40;2.83;;;20.50;77.40;;;;;;5079477;28;20089;-65
2021/09/01 01:13:00;;;;;;;9.10;3.45;;;20.60;77.10;;;;;;5096571;28;20036;-65
2021/09/01 01:15:26;;;;;;;9.38;2.97;;;20.60;77.30;;;;;;5101901;28;20047;-66
2021/09/01 01:17:52;;;;;;;7.95;3.38;;;20.60;77.20;;;;;;5097060;28;20048;-65
2021/09/01 01:20:17;;;;;;;8.60;2.85;;;20.60;77.50;;;;;;5097505;28;20498;-65
2021/09/01 01:22:43;;;;;;;7.20;3.53;;;20.60;77.70;;;;;;5096608;28;21574;-65
2021/09/01 01:25:10;;;;;;;8.93;3.03;;;20.60;77.60;;;;;;5096574;28;22183;-65
2021/09/01 01:27:40;;;;;;;7.30;2.75;;;20.70;77.80;;;;;;5096600;28;20039;-65
2021/09/01 01:30:20;;;;;;;7.10;2.70;;;20.60;77.60;;;;;;5097451;28;20043;-65
2021/09/01 01:32:48;;;;;;;7.72;3.17;;;20.70;77.30;;;;;;5095055;28;20101;-65
2021/09/01 01:35:24;;;;;;;7.80;3.08;;;20.70;77.30;;;;;;5079589;28;20114;-65
2021/09/01 01:37:49;;;;;;;8.02;3.03;;;20.70;77.20;;;;;;5098979;28;20063;-64
2021/09/01 01:40:15;;;;;;;8.13;3.25;;;20.60;77.00;;;;;;5098810;28;20039;-65
2021/09/01 01:42:42;;;;;;;8.50;2.92;;;20.60;77.00;;;;;;5097896;27;20403;-65
2021/09/01 01:45:09;;;;;;;10.20;2.95;;;20.60;77.00;;;;;;5083526;27;20054;-68
2021/09/01 01:47:34;;;;;;;8.52;2.85;;;20.60;77.00;;;;;;5100356;27;20036;-69
2021/09/01 01:50:00;;;;;;;7.05;2.97;;;20.60;76.50;;;;;;5086015;27;20046;-68
2021/09/01 01:52:26;;;;;;;9.07;3.17;;;20.60;76.70;;;;;;5107642;27;20368;-69
2021/09/01 01:54:51;;;;;;;8.57;3.35;;;20.60;76.70;;;;;;5101513;27;20062;-69
2021/09/01 01:57:19;;;;;;;6.00;3.05;;;20.60;76.80;;;;;;5098301;28;20464;-69
2021/09/01 01:59:45;;;;;;;8.30;3.55;;;20.60;76.90;;;;;;5083450;27;20805;-69
2021/09/01 02:02:10;;;;;;;6.97;2.97;;;20.60;77.30;;;;;;5099508;28;20047;-69
2021/09/01 02:04:36;;;;;;;6.55;3.15;;;20.60;77.20;;;;;;5102711;28;20039;-69
2021/09/01 02:07:02;;;;;;;7.10;2.63;;;20.60;77.10;;;;;;5102145;28;20141;-69
2021/09/01 02:09:28;;;;;;;5.05;2.55;;;20.60;77.00;;;;;;5099901;28;20161;-69
2021/09/01 02:11:53;;;;;;;7.93;3.42;;;20.60;77.20;;;;;;5098974;28;20122;-70
2021/09/01 02:14:19;;;;;;;7.53;2.80;;;20.60;77.20;;;;;;5101684;28;20078;-64
2021/09/01 02:16:45;;;;;;;7.13;2.53;;;20.70;77.30;;;;;;5099871;28;20588;-64
2021/09/01 02:19:11;;;;;;;8.27;3.58;;;20.70;77.10;;;;;;5082511;28;20059;-64
2021/09/01 02:21:37;;;;;;;9.05;2.92;;;20.60;77.00;;;;;;5103323;28;20043;-64
2021/09/01 02:24:05;;;;;;;6.28;3.13;;;20.70;77.00;;;;;;5086787;28;20039;-64
2021/09/01 02:26:30;;;;;;;6.25;2.83;;;20.70;77.00;;;;;;5101985;28;20077;-65
2021/09/01 02:28:56;;;;;;;7.60;3.05;;;20.70;76.70;;;;;;5116380;28;21021;-65
2021/09/01 02:31:22;;;;;;;7.55;3.08;;;20.70;76.50;;;;;;5085449;28;20027;-65
2021/09/01 02:33:47;;;;;;;8.90;3.08;;;20.70;76.50;;;;;;5099184;28;20064;-65
2021/09/01 02:36:13;;;;;;;6.53;3.22;;;20.70;76.50;;;;;;5105135;28;20058;-65
2021/09/01 02:38:41;;;;;;;7.68;3.20;;;20.60;76.50;;;;;;5084539;28;20039;-65
2021/09/01 02:41:07;;;;;;;9.23;2.85;;;20.70;76.50;;;;;;5101144;28;20078;-65
2021/09/01 02:43:33;;;;;;;7.30;2.85;;;20.70;76.50;;;;;;5086565;28;20082;-64
2021/09/01 02:45:59;;;;;;;6.78;2.70;;;20.60;76.60;;;;;;5099707;28;20047;-65
2021/09/01 02:48:25;;;;;;;5.20;2.60;;;20.70;76.60;;;;;;5099055;28;20035;-69
2021/09/01 02:50:52;;;;;;;7.00;3.40;;;20.70;76.60;;;;;;5101306;28;20040;-69
2021/09/01 02:53:18;;;;;;;7.82;3.88;;;20.70;76.40;;;;;;5118873;28;20475;-69
2021/09/01 02:55:44;;;;;;;6.43;2.85;;;20.70;76.60;;;;;;5115355;28;20046;-69
2021/09/01 02:58:10;;;;;;;7.63;2.47;;;20.70;76.70;;;;;;5101495;28;20403;-69
2021/09/01 03:00:37;;;;;;;8.13;2.78;;;20.70;76.80;;;;;;5099000;28;20035;-69
2021/09/01 03:03:02;;;;;;;7.60;2.50;;;20.70;76.50;;;;;;5099325;28;20169;-70
2021/09/01 03:05:28;;;;;;;10.38;2.65;;;20.70;76.40;;;;;;5101050;28;20039;-69
2021/09/01 03:07:54;;;;;;;8.30;3.25;;;20.70;76.40;;;;;;5098696;28;20055;-69
2021/09/01 03:10:20;;;;;;;7.25;2.75;;;20.60;76.30;;;;;;5116923;28;20047;-69
2021/09/01 03:12:46;;;;;;;8.32;2.92;;;20.60;76.60;;;;;;5117848;28;20552;-69
2021/09/01 03:15:12;;;;;;;8.68;2.80;;;20.60;76.50;;;;;;5083563;28;20127;-69
2021/09/01 03:17:37;;;;;;;5.55;3.10;;;20.60;76.80;;;;;;5085328;28;20043;-69
2021/09/01 03:20:04;;;;;;;8.77;3.05;;;20.60;76.60;;;;;;5100459;27;20051;-69
2021/09/01 03:22:29;;;;;;;8.45;3.25;;;20.60;76.60;;;;;;5086119;27;20043;-68
2021/09/01 03:24:55;;;;;;;5.93;2.63;;;20.60;76.70;;;;;;5104379;27;20039;-69
2021/09/01 03:27:20;;;;;;;8.00;2.85;;;20.60;76.60;;;;;;5088672;27;20085;-68
2021/09/01 03:29:46;;;;;;;8.48;3.00;;;20.60;76.60;;;;;;5103208;27;20056;-68
2021/09/01 03:32:12;;;;;;;7.68;3.00;;;20.60;76.60;;;;;;5070220;27;20035;-69
2021/09/01 03:34:37;;;;;;;8.25;2.70;;;20.60;76.40;;;;;;5119716;27;20038;-69
2021/09/01 03:37:03;;;;;;;7.25;3.15;;;20.60;76.00;;;;;;5101583;27;20163;-68
2021/09/01 03:39:29;;;;;;;9.18;3.00;;;20.60;76.10;;;;;;5101874;27;20054;-68
2021/09/01 03:41:54;;;;;;;7.72;2.85;;;20.50;75.90;;;;;;5085866;27;20043;-68
2021/09/01 03:44:20;;;;;;;7.57;3.03;;;20.30;75.70;;;;;;5102082;27;20040;-69
2021/09/01 03:46:46;;;;;;;9.18;2.95;;;20.20;76.90;;;;;;5106990;27;21004;-68
2021/09/01 03:49:17;;;;;;;7.32;2.67;;;20.30;76.90;;;;;;5101801;27;20436;-69
2021/09/01 03:51:44;;;;;;;6.30;2.70;;;20.30;76.80;;;;;;5087790;27;21175;-69
2021/09/01 03:54:10;;;;;;;5.95;3.08;;;20.30;76.60;;;;;;5101998;27;20520;-68
2021/09/01 03:56:37;;;;;;;7.88;2.88;;;20.30;76.50;;;;;;5105707;27;20078;-69
2021/09/01 03:59:03;;;;;;;5.85;2.92;;;20.30;76.70;;;;;;5104229;27;20047;-69
2021/09/01 04:01:29;;;;;;;8.85;3.58;;;20.40;76.70;;;;;;5105856;27;20490;-70
2021/09/01 04:03:54;;;;;;;7.20;3.13;;;20.40;76.40;;;;;;5101532;27;20122;-69
2021/09/01 04:06:20;;;;;;;8.73;3.05;;;20.50;76.50;;;;;;5102765;27;20517;-69
2021/09/01 04:08:46;;;;;;;7.97;3.80;;;20.50;76.40;;;;;;5087820;27;20039;-69
2021/09/01 04:11:11;;;;;;;7.00;3.20;;;20.50;76.30;;;;;;5100955;27;20031;-69
2021/09/01 04:13:37;;;;;;;8.73;3.88;;;20.50;76.50;;;;;;5084889;27;20039;-69
2021/09/01 04:16:03;;;;;;;6.25;2.50;;;20.40;75.70;;;;;;5103553;27;20058;-66
2021/09/01 04:18:29;;;;;;;6.03;2.75;;;20.30;76.10;;;;;;5118506;27;20076;-65
2021/09/01 04:20:54;;;;;;;11.02;3.40;;;20.20;76.30;;;;;;5103159;27;20474;-65
2021/09/01 04:23:20;;;;;;;9.18;2.83;;;20.10;76.50;;;;;;5102272;27;20083;-65
2021/09/01 04:25:46;;;;;;;10.07;3.05;;;20.10;76.80;;;;;;5118687;27;20103;-66
2021/09/01 04:28:11;;;;;;;5.93;3.03;;;20.20;77.00;;;;;;5100679;27;20035;-66
2021/09/01 04:30:37;;;;;;;9.00;3.08;;;20.20;76.80;;;;;;5098589;27;20044;-65
2021/09/01 04:33:03;;;;;;;5.68;2.50;;;20.30;76.70;;;;;;5086549;27;20027;-65
2021/09/01 04:35:28;;;;;;;12.15;3.85;;;20.30;76.30;;;;;;5101423;27;20042;-65
2021/09/01 04:37:54;;;;;;;7.05;3.10;;;20.30;75.60;;;;;;5088077;27;20051;-64
2021/09/01 04:40:19;;;;;;;8.75;2.92;;;20.20;76.00;;;;;;5103471;27;20049;-65
2021/09/01 04:42:45;;;;;;;6.32;2.85;;;20.30;76.50;;;;;;5099315;27;20043;-64
2021/09/01 04:45:11;;;;;;;6.57;2.63;;;20.30;77.10;;;;;;5101425;27;20050;-64
2021/09/01 04:47:37;;;;;;;7.60;3.78;;;20.40;76.70;;;;;;5086040;27;20039;-65
2021/09/01 04:50:03;;;;;;;5.28;2.53;;;20.50;76.80;;;;;;5084615;27;20120;-64
2021/09/01 04:52:29;;;;;;;7.03;3.05;;;20.50;76.60;;;;;;5100381;27;20063;-64
2021/09/01 04:54:54;;;;;;;6.35;2.60;;;20.50;76.20;;;;;;5103141;27;20071;-64
2021/09/01 04:57:20;;;;;;;7.55;3.22;;;20.50;76.10;;;;;;5104927;27;20121;-64
2021/09/01 04:59:46;;;;;;;7.70;2.55;;;20.50;76.10;;;;;;5099215;27;20533;-69
2021/09/01 05:02:12;;;;;;;7.78;3.70;;;20.60;75.90;;;;;;5103455;27;20035;-70
2021/09/01 05:04:37;;;;;;;8.77;2.92;;;20.60;75.90;;;;;;5102662;27;20475;-70
2021/09/01 05:07:03;;;;;;;7.45;3.50;;;20.60;75.90;;;;;;5100396;27;20027;-69
2021/09/01 05:09:29;;;;;;;7.85;2.63;;;20.50;76.00;;;;;;5117702;27;20051;-69
2021/09/01 05:11:54;;;;;;;6.75;3.00;;;20.50;76.10;;;;;;5087342;27;20121;-65
2021/09/01 05:14:20;;;;;;;4.93;2.60;;;20.50;76.10;;;;;;5100276;27;20134;-68
2021/09/01 05:16:46;;;;;;;9.00;3.50;;;20.50;76.10;;;;;;5100425;27;20035;-65
2021/09/01 05:19:11;;;;;;;6.45;3.03;;;20.50;76.10;;;;;;5102404;27;20043;-66
2021/09/01 05:21:44;;;;;;;8.80;3.20;;;20.50;76.20;;;;;;5100501;27;20066;-66
2021/09/01 05:24:22;;;;;;;9.57;3.35;;;20.40;76.10;;;;;;5100385;27;20054;-66
2021/09/01 05:26:54;;;;;;;7.32;2.85;;;20.40;76.00;;;;;;5103193;27;20043;-65
2021/09/01 05:29:27;;;;;;;6.78;2.80;;;20.20;76.10;;;;;;5117547;27;20062;-65
2021/09/01 05:31:54;;;;;;;6.72;2.72;;;20.20;76.40;;;;;;5099382;27;20119;-65
2021/09/01 05:34:20;;;;;;;7.90;2.95;;;20.20;76.60;;;;;;5118011;27;20145;-65
2021/09/01 05:36:49;;;;;;;10.63;2.85;;;20.10;76.40;;;;;;5089006;27;20034;-65
2021/09/01 05:39:15;;;;;;;7.95;3.22;;;20.00;76.50;;;;;;5116337;27;20109;-65
2021/09/01 05:41:42;;;;;;;8.77;2.88;;;20.00;76.70;;;;;;5099517;27;20097;-65
2021/09/01 05:44:09;;;;;;;8.90;3.20;;;20.00;76.90;;;;;;5098865;27;20094;-65
2021/09/01 05:46:36;;;;;;;6.57;3.38;;;20.00;76.70;;;;;;5099763;27;20051;-65
2021/09/01 05:49:02;;;;;;;10.70;2.90;;;20.00;76.80;;;;;;5116479;27;20410;-70
2021/09/01 05:51:28;;;;;;;9.52;3.13;;;19.90;76.80;;;;;;5099357;27;20034;-70
2021/09/01 05:53:54;;;;;;;8.70;3.53;;;19.90;76.90;;;;;;5101640;28;20120;-70
2021/09/01 05:56:28;;;;;;;9.68;3.25;;;19.90;76.90;;;;;;5117568;27;20039;-70
2021/09/01 05:58:57;;;;;;;9.63;3.20;;;19.90;76.70;;;;;;5096600;28;20044;-70
2021/09/01 06:01:27;;;;;;;12.60;3.40;;;20.00;76.70;;;;;;5100211;28;20122;-70
2021/09/01 06:03:58;;;;;;;6.05;2.78;;;20.00;76.50;;;;;;5102081;28;20043;-69
2021/09/01 06:06:26;;;;;;;9.50;3.35;;;19.90;76.80;;;;;;5115480;28;20035;-70
2021/09/01 06:08:51;;;;;;;8.00;3.47;;;20.00;76.80;;;;;;5116405;28;20150;-73
2021/09/01 06:11:24;;;;;;;7.32;2.97;;;20.00;77.00;;;;;;5084453;28;20040;-68
2021/09/01 06:13:50;;;;;;;12.85;4.22;;;20.00;77.00;;;;;;5099343;28;20180;-67
2021/09/01 06:16:15;;;;;;;9.95;3.15;;;20.00;76.90;;;;;;5115242;28;20597;-67
2021/09/01 06:18:41;;;;;;;10.43;3.67;;;20.10;76.70;;;;;;5098897;28;20043;-67
2021/09/01 06:21:07;;;;;;;8.07;3.45;;;20.00;76.40;;;;;;5098565;28;20119;-67
2021/09/01 06:23:34;;;;;;;9.50;3.60;;;20.10;76.10;;;;;;5098743;28;20108;-67
2021/09/01 06:26:02;;;;;;;10.63;4.38;;;20.10;75.80;;;;;;5115378;28;20077;-68
2021/09/01 06:28:28;;;;;;;10.10;3.40;;;20.10;75.60;;;;;;5082950;28;20039;-68
2021/09/01 06:30:54;;;;;;;9.13;3.67;;;20.10;75.40;;;;;;5104951;28;20050;-69
2021/09/01 06:33:19;;;;;;;8.80;3.42;;;20.10;75.10;;;;;;5098057;28;20123;-67
2021/09/01 06:35:47;;;;;;;9.73;3.60;;;20.10;74.70;;;;;;5098611;28;20039;-68
2021/09/01 06:38:13;;;;;;;9.35;3.85;;;20.10;74.40;;;;;;5101974;28;20047;-62
2021/09/01 06:40:39;;;;;;;11.38;3.92;;;20.20;74.50;;;;;;5099168;28;20054;-62
2021/09/01 06:43:05;;;;;;;10.27;3.45;;;20.10;74.50;;;;;;5097785;28;20059;-62
2021/09/01 06:45:30;;;;;;;10.93;3.42;;;20.10;75.10;;;;;;5082665;28;20047;-62
2021/09/01 06:47:56;;;;;;;11.52;4.57;;;20.10;74.40;;;;;;5083890;28;20035;-61
2021/09/01 06:50:24;;;;;;;13.65;4.10;;;20.10;74.20;;;;;;5098003;28;22304;-61
2021/09/01 06:52:51;;;;;;;12.23;4.32;;;20.10;74.20;;;;;;5099008;27;20061;-61
2021/09/01 06:55:17;;;;;;;11.32;3.90;;;20.10;74.70;;;;;;5119756;27;20223;-61
2021/09/01 06:57:44;;;;;;;16.65;4.15;;;20.20;74.30;;;;;;5119074;27;20036;-61
2021/09/01 07:00:12;;;;;;;14.25;3.80;;;20.20;74.50;;;;;;5105770;27;20039;-60
2021/09/01 07:02:38;;;;;;;10.30;4.13;;;20.20;74.60;;;;;;5119540;27;20035;-61
2021/09/01 07:05:04;;;;;;;9.68;4.63;;;20.20;74.30;;;;;;5118752;27;20028;-61
2021/09/01 07:07:30;;;;;;;11.32;3.97;;;20.20;74.80;;;;;;5106489;27;20073;-61
2021/09/01 07:09:56;;;;;;;10.73;3.92;;;20.30;74.80;;;;;;5097792;27;21079;-61
2021/09/01 07:12:22;;;;;;;11.35;3.85;;;20.40;74.30;;;;;;5118883;27;20094;-62
2021/09/01 07:14:49;;;;;;;9.55;3.92;;;20.40;73.70;;;;;;5100558;27;20048;-62
2021/09/01 07:17:14;;;;;;;10.65;3.78;;;20.40;73.30;;;;;;5100469;27;20046;-62
2021/09/01 07:19:40;;;;;;;12.65;3.75;;;20.40;73.20;;;;;;5118640;27;20043;-63
2021/09/01 07:22:06;;;;;;;15.20;5.72;;;20.50;73.20;;;;;;5087604;27;20457;-65
2021/09/01 07:24:32;;;;;;;11.52;4.35;;;20.40;73.40;;;;;;5106727;27;20043;-64
2021/09/01 07:26:57;;;;;;;12.27;3.97;;;20.40;73.50;;;;;;5105404;27;20072;-64
2021/09/01 07:29:23;;;;;;;12.52;4.00;;;20.40;73.60;;;;;;5083526;27;20661;-63
2021/09/01 07:31:49;;;;;;;22.92;5.35;;;20.50;73.60;;;;;;5103706;27;20091;-64
2021/09/01 07:34:15;;;;;;;10.60;3.55;;;20.50;73.40;;;;;;5108100;27;22157;-64
2021/09/01 07:36:40;;;;;;;10.43;3.75;;;20.50;73.40;;;;;;5105771;27;20049;-64
2021/09/01 07:39:06;;;;;;;12.98;3.63;;;20.50;73.80;;;;;;5121014;27;20039;-64
2021/09/01 07:41:33;;;;;;;10.48;4.28;;;20.60;73.40;;;;;;5107513;27;20031;-63
2021/09/01 07:43:59;;;;;;;11.95;4.43;;;20.60;73.40;;;;;;5106677;27;20099;-64
2021/09/01 07:46:24;;;;;;;8.95;3.65;;;20.60;73.60;;;;;;5092460;27;20440;-63
2021/09/01 07:48:50;;;;;;;12.40;3.78;;;20.60;73.60;;;;;;5102389;27;20107;-63
2021/09/01 07:51:16;;;;;;;12.20;3.10;;;20.70;73.60;;;;;;5104142;27;20122;-62
2021/09/01 07:53:44;;;;;;;10.77;3.97;;;20.70;73.60;;;;;;5116965;27;20047;-62
2021/09/01 07:56:10;;;;;;;11.43;3.70;;;20.60;73.80;;;;;;5089879;27;20108;-62
2021/09/01 07:58:36;;;;;;;12.32;4.18;;;20.70;74.40;;;;;;5100552;27;20043;-62
2021/09/01 08:01:02;;;;;;;11.55;4.18;;;20.70;74.90;;;;;;5105310;27;20044;-62
2021/09/01 08:03:28;;;;;;;10.20;3.53;;;20.70;76.10;;;;;;5099613;27;20043;-63
2021/09/01 08:05:54;;;;;;;13.48;4.30;;;20.70;76.20;;;;;;5098980;27;20054;-63
2021/09/01 08:08:20;;;;;;;10.90;3.92;;;20.70;76.30;;;;;;5119172;27;20039;-63
2021/09/01 08:10:45;;;;;;;13.25;4.30;;;20.60;76.00;;;;;;5101245;27;20059;-63
2021/09/01 08:13:11;;;;;;;11.00;4.32;;;20.70;76.10;;;;;;5117789;27;20031;-62
2021/09/01 08:15:39;;;;;;;11.77;3.38;;;20.70;75.90;;;;;;5098929;27;20583;-62
2021/09/01 08:18:05;;;;;;;11.27;3.85;;;20.70;75.50;;;;;;5115955;27;20063;-62
2021/09/01 08:20:31;;;;;;;9.27;3.70;;;20.70;75.10;;;;;;5100567;27;20092;-62
2021/09/01 08:22:57;;;;;;;9.68;4.25;;;20.80;74.90;;;;;;5118921;27;20047;-61
2021/09/01 08:25:23;;;;;;;9.82;4.22;;;20.80;74.60;;;;;;5088001;27;20047;-62
2021/09/01 08:27:48;;;;;;;13.90;4.28;;;20.80;74.20;;;;;;5116805;27;20098;-62
2021/09/01 08:30:15;;;;;;;13.23;3.90;;;20.80;74.30;;;;;;5106911;27;20043;-62
2021/09/01 08:32:40;;;;;;;8.85;3.90;;;20.90;74.30;;;;;;5104783;27;20035;-62
2021/09/01 08:35:08;;;;;;;11.27;3.90;;;20.90;74.00;;;;;;5106260;27;20039;-64
2021/09/01 08:37:33;;;;;;;12.52;4.10;;;20.90;73.60;;;;;;5107379;27;20143;-64
2021/09/01 08:40:01;;;;;;;8.43;3.45;;;20.90;73.10;;;;;;5072650;27;20559;-64
2021/09/01 08:42:27;;;;;;;11.65;4.05;;;21.00;73.00;;;;;;5100466;27;20043;-63
2021/09/01 08:44:52;;;;;;;13.88;4.20;;;21.00;72.80;;;;;;5101379;28;20055;-63
2021/09/01 08:47:19;;;;;;;9.13;3.53;;;21.00;72.60;;;;;;5100583;28;20900;-61
2021/09/01 08:49:46;;;;;;;11.38;4.50;;;21.00;72.40;;;;;;5097620;28;20036;-64
2021/09/01 08:52:12;;;;;;;13.93;4.30;;;21.10;72.30;;;;;;5103354;28;20047;-64
2021/09/01 08:54:38;;;;;;;10.68;3.90;;;21.10;72.00;;;;;;5101080;28;20537;-62
2021/09/01 08:57:04;;;;;;;11.48;3.60;;;21.20;71.90;;;;;;5086085;28;20051;-62
2021/09/01 08:59:29;;;;;;;11.50;3.88;;;21.20;72.40;;;;;;5099187;28;20048;-63
2021/09/01 09:01:55;;;;;;;11.82;3.90;;;21.20;72.70;;;;;;5100568;28;20039;-63
2021/09/01 09:04:23;;;;;;;10.38;3.40;;;21.20;72.30;;;;;;5102107;28;20082;-63
2021/09/01 09:06:57;;;;;;;11.95;3.97;;;21.30;72.20;;;;;;5101022;28;20039;-64
2021/09/01 09:09:31;;;;;;;10.00;4.00;;;21.30;71.70;;;;;;5100032;28;20067;-62
2021/09/01 09:11:58;;;;;;;8.10;3.50;;;21.30;71.40;;;;;;5101875;28;20480;-61
2021/09/01 09:14:48;;;;;;;13.95;4.20;;;21.30;71.50;;;;;;5084329;28;20050;-62
2021/09/01 09:17:19;;;;;;;10.43;3.80;;;21.30;70.80;;;;;;5084253;28;20177;-63
2021/09/01 09:19:52;;;;;;;11.52;4.20;;;21.20;71.60;;;;;;5102227;28;20047;-62
2021/09/01 09:22:39;;;;;;;9.13;3.33;;;21.20;72.20;;;;;;5102553;28;20936;-61
2021/09/01 09:25:12;;;;;;;9.55;3.58;;;21.20;72.50;;;;;;5096938;28;20063;-64
2021/09/01 09:28:01;;;;;;;10.50;3.85;;;21.20;72.70;;;;;;5102212;28;20119;-64
2021/09/01 09:30:34;;;;;;;13.60;3.65;;;21.20;72.70;;;;;;5101607;28;20035;-64
2021/09/01 09:33:17;;;;;;;8.35;3.63;;;21.20;71.80;;;;;;5095546;28;20035;-64
2021/09/01 09:36:04;;;;;;;11.32;4.28;;;21.20;72.50;;;;;;5101215;28;20047;-66
2021/09/01 09:38:40;;;;;;;9.80;3.10;;;21.20;72.80;;;;;;5100055;28;20039;-63
2021/09/01 09:41:19;;;;;;;8.95;3.45;;;21.30;72.90;;;;;;5100039;28;20096;-64
2021/09/01 09:43:44;;;;;;;10.07;4.05;;;21.30;72.70;;;;;;5102208;28;20063;-64
2021/09/01 09:46:12;;;;;;;8.65;3.72;;;21.30;72.80;;;;;;5097358;28;20071;-64
2021/09/01 09:48:40;;;;;;;9.75;3.28;;;21.30;72.60;;;;;;5101308;28;20049;-63
2021/09/01 09:51:11;;;;;;;9.27;3.45;;;21.30;72.10;;;;;;5099609;28;20115;-63
2021/09/01 09:53:44;;;;;;;11.55;3.88;;;21.30;72.50;;;;;;5094504;28;20079;-63
2021/09/01 09:56:23;;;;;;;10.23;4.32;;;21.40;72.70;;;;;;5099008;28;20081;-63
2021/09/01 09:58:54;;;;;;;9.20;3.85;;;21.40;72.60;;;;;;5099596;28;20028;-63
2021/09/01 10:01:23;;;;;;;6.72;3.10;;;21.40;72.40;;;;;;5102065;28;20422;-63
2021/09/01 10:03:49;;;;;;;10.43;3.80;;;21.30;72.40;;;;;;5098453;28;20088;-63
2021/09/01 10:06:17;;;;;;;14.05;3.90;;;21.40;71.60;;;;;;5097115;28;20046;-64
2021/09/01 10:08:47;;;;;;;7.72;3.10;;;21.30;72.10;;;;;;5095290;28;20032;-61
2021/09/01 10:11:15;;;;;;;9.40;3.10;;;21.30;72.40;;;;;;5101412;28;20032;-64
2021/09/01 10:13:43;;;;;;;10.30;3.92;;;21.30;72.20;;;;;;5102135;28;20079;-64
2021/09/01 10:16:21;;;;;;;7.88;3.80;;;21.30;72.30;;;;;;5097982;28;20040;-61
2021/09/01 10:19:07;;;;;;;10.98;3.97;;;21.40;71.90;;;;;;5113886;28;20039;-62
2021/09/01 10:21:38;;;;;;;10.07;3.00;;;21.40;72.20;;;;;;5084841;28;20052;-63
2021/09/01 10:24:17;;;;;;;9.50;3.42;;;21.40;72.20;;;;;;5101282;28;20126;-63
2021/09/01 10:27:02;;;;;;;9.50;3.53;;;21.40;72.30;;;;;;5094730;28;20046;-62
2021/09/01 10:29:50;;;;;;;8.13;3.13;;;21.40;72.30;;;;;;5102224;28;20475;-61
2021/09/01 10:32:42;;;;;;;10.13;3.83;;;21.50;72.20;;;;;;5100124;28;20035;-61
2021/09/01 10:35:11;;;;;;;9.82;3.75;;;21.50;71.00;;;;;;5103093;28;20775;-61
2021/09/01 10:37:43;;;;;;;7.72;3.25;;;21.40;71.40;;;;;;5102763;28;20047;-61
2021/09/01 10:40:10;;;;;;;;;;;21.40;71.90;;;;;;5102134;28;20558;-61
2021/09/01 10:42:38;;;;;;;11.55;3.53;;;21.30;72.20;;;;;;5103069;27;19972;-61
2021/09/01 10:45:23;;;;;;;11.77;3.55;;;21.30;72.50;;;;;;5091040;27;20051;-60
2021/09/01 10:47:52;;;;;;;13.73;4.10;;;21.40;72.50;;;;;;5107426;27;20035;-62
2021/09/01 10:50:28;;;;;;;31.35;16.85;;;21.40;73.10;;;;;;5106285;27;20119;-60
2021/09/01 10:53:47;;;;;;;31.67;18.35;;;21.40;73.20;;;;;;5107449;27;20108;-60
2021/09/01 10:56:14;;;;;;;34.05;20.35;;;21.50;73.20;;;;;;5118441;27;20531;-61
2021/09/01 10:58:44;;;;;;;31.95;18.35;;;21.60;73.00;;;;;;5107039;27;20035;-61
2021/09/01 11:01:19;;;;;;;18.13;11.23;;;21.70;72.60;;;;;;5102753;27;20475;-61
2021/09/01 11:03:52;;;;;;;12.38;4.35;;;21.80;71.90;;;;;;5108852;27;20037;-61
2021/09/01 11:06:22;;;;;;;;;;;21.70;70.60;;;;;;5106770;27;20047;-63
2021/09/01 11:09:05;;;;;;;15.55;9.30;;;21.60;70.80;;;;;;5121633;27;19924;-61
2021/09/01 11:11:41;;;;;;;;;;;21.50;70.60;;;;;;5121743;27;20039;-61
2021/09/01 11:14:07;;;;;;;15.55;6.38;;;21.30;70.40;;;;;;5106117;27;19919;-61
2021/09/01 11:16:33;;;;;;;14.80;5.70;;;21.10;71.80;;;;;;5122958;27;20050;-61
2021/09/01 11:19:05;;;;;;;14.43;3.95;;;21.00;71.30;;;;;;5102583;27;20055;-61
2021/09/01 11:21:33;;;;;;;15.60;6.47;;;20.90;70.10;;;;;;5120806;27;20124;-61
2021/09/01 11:24:00;;;;;;;16.38;4.00;;;20.80;70.90;;;;;;5101874;27;20039;-61
2021/09/01 11:26:30;;;;;;;12.55;4.22;;;20.80;70.50;;;;;;5106295;27;20607;-61
2021/09/01 11:28:56;;;;;;;14.77;7.90;;;20.70;69.80;;;;;;5109407;27;20076;-61
2021/09/01 11:31:22;;;;;;;14.85;7.10;;;20.70;71.50;;;;;;5105786;27;20035;-61
2021/09/01 11:33:51;;;;;;;15.35;7.93;;;20.80;72.20;;;;;;5120689;27;20039;-61
2021/09/01 11:36:17;;;;;;;18.60;7.78;;;20.80;72.00;;;;;;5120310;27;20096;-61
2021/09/01 11:38:46;;;;;;;14.23;8.20;;;20.90;72.20;;;;;;5103097;27;20126;-61
2021/09/01 11:41:12;;;;;;;15.68;7.57;;;21.00;72.00;;;;;;5099636;27;20118;-61
2021/09/01 11:43:38;;;;;;;16.38;8.10;;;21.10;72.30;;;;;;5104976;27;20127;-61
2021/09/01 11:46:04;;;;;;;16.35;7.57;;;21.20;72.40;;;;;;5121938;27;20052;-61
2021/09/01 11:48:40;;;;;;;10.00;3.95;;;21.40;72.00;;;;;;5104845;27;20046;-61
2021/09/01 11:51:06;;;;;;;13.88;6.75;;;21.50;70.20;;;;;;5121227;27;20035;-60
2021/09/01 11:53:40;;;;;;;18.17;7.18;;;21.50;70.70;;;;;;5083832;27;20050;-62
2021/09/01 11:56:07;;;;;;;12.20;6.13;;;21.60;71.20;;;;;;5085584;27;20061;-62
2021/09/01 11:58:33;;;;;;;11.68;5.85;;;21.60;70.10;;;;;;5090280;27;20049;-62
2021/09/01 12:01:03;;;;;;;17.67;6.80;;;21.60;70.10;;;;;;5089663;27;20054;-62
2021/09/01 12:03:30;;;;;;;11.07;5.55;;;21.70;70.90;;;;;;5121636;27;20379;-62
2021/09/01 12:06:08;;;;;;;10.77;3.90;;;21.70;70.40;;;;;;5093805;27;20098;-62
2021/09/01 12:08:45;;;;;;;9.25;4.55;;;21.80;69.30;;;;;;5103251;27;20053;-63
2021/09/01 12:11:12;;;;;;;10.45;5.57;;;21.70;69.80;;;;;;5090056;27;20031;-62
2021/09/01 12:13:42;;;;;;;10.48;5.28;;;21.70;69.90;;;;;;5106959;27;20043;-62
2021/09/01 12:16:08;;;;;;;12.90;6.18;;;21.70;69.50;;;;;;5106420;27;20390;-62
2021/09/01 12:18:50;;;;;;;8.77;4.25;;;21.70;70.30;;;;;;5107295;27;20128;-62
2021/09/01 12:21:17;;;;;;;12.32;5.60;;;21.70;69.20;;;;;;5120732;27;20082;-62
2021/09/01 12:23:44;;;;;;;14.77;6.40;;;21.70;70.60;;;;;;5104586;27;20043;-62
2021/09/01 12:26:10;;;;;;;12.32;6.28;;;21.80;71.20;;;;;;5119542;27;20973;-61
2021/09/01 12:28:46;;;;;;;11.43;5.63;;;21.80;71.30;;;;;;5103364;27;20106;-61
2021/09/01 12:31:23;;;;;;;12.27;4.90;;;21.90;71.10;;;;;;5120281;27;20076;-62
2021/09/01 12:33:50;;;;;;;10.40;4.22;;;21.90;70.20;;;;;;5083567;27;20035;-64
2021/09/01 12:36:27;;;;;;;12.60;3.90;;;21.80;70.60;;;;;;5090009;27;20058;-62
2021/09/01 12:38:57;;;;;;;15.30;4.28;;;21.70;69.30;;;;;;5105108;27;20035;-64
2021/09/01 12:41:24;;;;;;;11.57;3.88;;;21.50;69.80;;;;;;5090862;27;20036;-64
2021/09/01 12:43:58;;;;;;;14.05;4.22;;;21.40;69.60;;;;;;5106929;27;20138;-65
2021/09/01 12:46:24;;;;;;;11.73;4.00;;;21.30;69.90;;;;;;5105805;27;20113;-65
2021/09/01 12:48:51;;;;;;;12.07;4.35;;;21.20;70.40;;;;;;5104189;27;20122;-61
2021/09/01 12:51:16;;;;;;;10.40;4.15;;;21.10;70.50;;;;;;5100197;27;20044;-61